sensor_id;sensor_type;location;lat;lon;timestamp;P1;durP1;ratioP1;P2;durP2;ratioP2
7150;SDS011;3617;48.836;9.172;2023-08-12T00:01:10;5.60;;;3.83;;
7150;SDS011;3617;48.836;9.172;2023-08-12T00:03:37;4.70;;;3.75;;
7150;SDS011;3617;48.836;9.172;2023-08-12T00:06:03;6.10;;;4.15;;
7150;SDS011;3617;48.836;9.172;2023-08-12T00:08:30;5.30;;;3.75;;
7150;SDS011;3617;48.836;9.172;2023-08-12T00:10:56;5.40;;;3.63;;
7150;SDS011;3617;48.836;9.172;2023-08-12T00:13:22;7.53;;;4.32;;
7150;SDS011;3617;48.836;9.172;2023-08-12T00:15:48;5.88;;;4.28;;
7150;SDS011;3617;48.836;9.172;2023-08-12T00:18:14;5.88;;;4.28;;
7150;SDS011;3617;48.836;9.172;2023-08-12T00:20:40;6.93;;;4.47;;
7150;SDS011;3617;48.836;9.172;2023-08-12T00:23:07;7.43;;;4.45;;
7150;SDS011;3617;48.836;9.172;2023-08-12T00:25:33;6.33;;;4.17;;
7150;SDS011;3617;48.836;9.172;2023-08-12T00:27:59;7.07;;;4.45;;
7150;SDS011;3617;48.836;9.172;2023-08-12T00:30:25;6.60;;;4.00;;
7150;SDS011;3617;48.836;9.172;2023-08-12T00:32:51;4.68;;;3.70;;
7150;SDS011;3617;48.836;9.172;2023-08-12T00:35:17;9.80;;;4.30;;
7150;SDS011;3617;48.836;9.172;2023-08-12T00:37:43;4.78;;;3.60;;
7150;SDS011;3617;48.836;9.172;2023-08-12T00:40:09;6.43;;;3.97;;
7150;SDS011;3617;48.836;9.172;2023-08-12T00:42:35;5.30;;;3.60;;
7150;SDS011;3617;48.836;9.172;2023-08-12T00:45:01;5.93;;;4.10;;
7150;SDS011;3617;48.836;9.172;2023-08-12T00:47:29;7.80;;;4.53;;
7150;SDS011;3617;48.836;9.172;2023-08-12T00:49:55;5.03;;;3.80;;
7150;SDS011;3617;48.836;9.172;2023-08-12T00:52:23;6.18;;;3.63;;
7150;SDS011;3617;48.836;9.172;2023-08-12T00:54:49;5.13;;;3.20;;
7150;SDS011;3617;48.836;9.172;2023-08-12T00:57:15;7.33;;;3.50;;
7150;SDS011;3617;48.836;9.172;2023-08-12T00:59:41;5.23;;;3.67;;
7150;SDS011;3617;48.836;9.172;2023-08-12T01:02:10;5.33;;;4.20;;
7150;SDS011;3617;48.836;9.172;2023-08-12T01:04:37;5.77;;;3.47;;
7150;SDS011;3617;48.836;9.172;2023-08-12T01:07:03;5.60;;;3.60;;
7150;SDS011;3617;48.836;9.172;2023-08-12T01:09:29;4.47;;;3.67;;
7150;SDS011;3617;48.836;9.172;2023-08-12T01:12:06;4.35;;;3.47;;
7150;SDS011;3617;48.836;9.172;2023-08-12T01:14:50;4.63;;;3.53;;
7150;SDS011;3617;48.836;9.172;2023-08-12T01:17:17;5.23;;;4.00;;
7150;SDS011;3617;48.836;9.172;2023-08-12T01:19:43;6.07;;;3.67;;
7150;SDS011;3617;48.836;9.172;2023-08-12T01:22:10;3.80;;;3.40;;
7150;SDS011;3617;48.836;9.172;2023-08-12T01:24:38;4.73;;;3.50;;
7150;SDS011;3617;48.836;9.172;2023-08-12T01:27:05;6.23;;;3.67;;
7150;SDS011;3617;48.836;9.172;2023-08-12T01:29:32;5.47;;;3.60;;
7150;SDS011;3617;48.836;9.172;2023-08-12T01:32:03;5.45;;;3.50;;
7150;SDS011;3617;48.836;9.172;2023-08-12T01:34:34;6.57;;;3.63;;
7150;SDS011;3617;48.836;9.172;2023-08-12T01:37:03;5.83;;;3.67;;
7150;SDS011;3617;48.836;9.172;2023-08-12T01:39:30;5.30;;;3.57;;
7150;SDS011;3617;48.836;9.172;2023-08-12T01:41:57;6.60;;;3.77;;
7150;SDS011;3617;48.836;9.172;2023-08-12T01:44:23;5.37;;;3.43;;
7150;SDS011;3617;48.836;9.172;2023-08-12T01:46:49;7.77;;;3.90;;
7150;SDS011;3617;48.836;9.172;2023-08-12T01:49:15;6.03;;;3.97;;
7150;SDS011;3617;48.836;9.172;2023-08-12T01:51:41;6.10;;;4.07;;
7150;SDS011;3617;48.836;9.172;2023-08-12T01:54:07;6.27;;;3.87;;
7150;SDS011;3617;48.836;9.172;2023-08-12T01:56:33;6.87;;;3.53;;
7150;SDS011;3617;48.836;9.172;2023-08-12T01:58:59;5.73;;;4.20;;
7150;SDS011;3617;48.836;9.172;2023-08-12T02:01:25;5.50;;;3.77;;
7150;SDS011;3617;48.836;9.172;2023-08-12T02:03:51;8.70;;;3.67;;
7150;SDS011;3617;48.836;9.172;2023-08-12T02:06:17;5.03;;;3.73;;
7150;SDS011;3617;48.836;9.172;2023-08-12T02:08:44;5.30;;;3.40;;
7150;SDS011;3617;48.836;9.172;2023-08-12T02:11:10;7.70;;;3.37;;
7150;SDS011;3617;48.836;9.172;2023-08-12T02:13:36;4.83;;;3.43;;
7150;SDS011;3617;48.836;9.172;2023-08-12T02:16:02;4.83;;;3.33;;
7150;SDS011;3617;48.836;9.172;2023-08-12T02:18:28;4.97;;;3.63;;
7150;SDS011;3617;48.836;9.172;2023-08-12T02:20:54;4.33;;;3.30;;
7150;SDS011;3617;48.836;9.172;2023-08-12T02:23:20;4.87;;;3.20;;
7150;SDS011;3617;48.836;9.172;2023-08-12T02:25:46;4.13;;;3.30;;
7150;SDS011;3617;48.836;9.172;2023-08-12T02:28:12;5.00;;;3.60;;
7150;SDS011;3617;48.836;9.172;2023-08-12T02:30:38;6.07;;;3.90;;
7150;SDS011;3617;48.836;9.172;2023-08-12T02:33:04;5.50;;;3.87;;
7150;SDS011;3617;48.836;9.172;2023-08-12T02:35:30;5.40;;;3.70;;
7150;SDS011;3617;48.836;9.172;2023-08-12T02:37:56;5.40;;;3.40;;
7150;SDS011;3617;48.836;9.172;2023-08-12T02:40:22;6.67;;;3.53;;
7150;SDS011;3617;48.836;9.172;2023-08-12T02:42:48;4.03;;;3.20;;
7150;SDS011;3617;48.836;9.172;2023-08-12T02:45:14;5.10;;;3.43;;
7150;SDS011;3617;48.836;9.172;2023-08-12T02:47:40;5.53;;;3.70;;
7150;SDS011;3617;48.836;9.172;2023-08-12T02:50:06;5.73;;;3.90;;
7150;SDS011;3617;48.836;9.172;2023-08-12T02:52:32;5.30;;;3.50;;
7150;SDS011;3617;48.836;9.172;2023-08-12T02:54:58;4.65;;;3.50;;
7150;SDS011;3617;48.836;9.172;2023-08-12T02:57:25;4.80;;;3.70;;
7150;SDS011;3617;48.836;9.172;2023-08-12T02:59:51;5.80;;;3.63;;
7150;SDS011;3617;48.836;9.172;2023-08-12T03:02:17;4.93;;;3.70;;
7150;SDS011;3617;48.836;9.172;2023-08-12T03:04:43;5.70;;;3.43;;
7150;SDS011;3617;48.836;9.172;2023-08-12T03:07:09;5.63;;;3.43;;
7150;SDS011;3617;48.836;9.172;2023-08-12T03:09:35;4.77;;;3.50;;
7150;SDS011;3617;48.836;9.172;2023-08-12T03:12:01;6.03;;;3.40;;
7150;SDS011;3617;48.836;9.172;2023-08-12T03:14:28;4.57;;;3.60;;
7150;SDS011;3617;48.836;9.172;2023-08-12T03:16:54;4.70;;;3.13;;
7150;SDS011;3617;48.836;9.172;2023-08-12T03:19:21;6.03;;;4.15;;
7150;SDS011;3617;48.836;9.172;2023-08-12T03:21:46;4.80;;;3.20;;
7150;SDS011;3617;48.836;9.172;2023-08-12T03:24:12;4.35;;;2.92;;
7150;SDS011;3617;48.836;9.172;2023-08-12T03:26:38;4.13;;;3.20;;
7150;SDS011;3617;48.836;9.172;2023-08-12T03:29:04;4.60;;;3.53;;
7150;SDS011;3617;48.836;9.172;2023-08-12T03:31:30;5.33;;;3.43;;
7150;SDS011;3617;48.836;9.172;2023-08-12T03:33:56;4.38;;;3.05;;
7150;SDS011;3617;48.836;9.172;2023-08-12T03:36:22;4.60;;;3.60;;
7150;SDS011;3617;48.836;9.172;2023-08-12T03:38:48;4.90;;;3.20;;
7150;SDS011;3617;48.836;9.172;2023-08-12T03:41:14;4.38;;;3.30;;
7150;SDS011;3617;48.836;9.172;2023-08-12T03:43:40;4.82;;;3.78;;
7150;SDS011;3617;48.836;9.172;2023-08-12T03:46:06;5.53;;;3.17;;
7150;SDS011;3617;48.836;9.172;2023-08-12T03:48:32;5.57;;;3.65;;
7150;SDS011;3617;48.836;9.172;2023-08-12T03:50:58;4.40;;;3.13;;
7150;SDS011;3617;48.836;9.172;2023-08-12T03:53:24;7.13;;;3.63;;
7150;SDS011;3617;48.836;9.172;2023-08-12T03:55:50;4.30;;;3.27;;
7150;SDS011;3617;48.836;9.172;2023-08-12T03:58:16;5.93;;;3.67;;
7150;SDS011;3617;48.836;9.172;2023-08-12T04:00:42;4.70;;;3.63;;
7150;SDS011;3617;48.836;9.172;2023-08-12T04:03:08;6.72;;;3.85;;
7150;SDS011;3617;48.836;9.172;2023-08-12T04:05:34;5.68;;;3.92;;
7150;SDS011;3617;48.836;9.172;2023-08-12T04:08:00;5.95;;;3.50;;
7150;SDS011;3617;48.836;9.172;2023-08-12T04:10:26;5.90;;;3.78;;
7150;SDS011;3617;48.836;9.172;2023-08-12T04:12:52;5.60;;;3.60;;
7150;SDS011;3617;48.836;9.172;2023-08-12T04:15:18;7.43;;;3.97;;
7150;SDS011;3617;48.836;9.172;2023-08-12T04:17:44;4.93;;;3.53;;
7150;SDS011;3617;48.836;9.172;2023-08-12T04:20:10;4.47;;;3.30;;
7150;SDS011;3617;48.836;9.172;2023-08-12T04:22:36;5.78;;;3.30;;
7150;SDS011;3617;48.836;9.172;2023-08-12T04:25:02;5.05;;;3.25;;
7150;SDS011;3617;48.836;9.172;2023-08-12T04:27:28;4.88;;;3.55;;
7150;SDS011;3617;48.836;9.172;2023-08-12T04:29:54;4.03;;;3.28;;
7150;SDS011;3617;48.836;9.172;2023-08-12T04:32:20;5.88;;;4.20;;
7150;SDS011;3617;48.836;9.172;2023-08-12T04:34:46;4.20;;;3.40;;
7150;SDS011;3617;48.836;9.172;2023-08-12T04:37:12;4.70;;;3.47;;
7150;SDS011;3617;48.836;9.172;2023-08-12T04:39:39;4.15;;;3.17;;
7150;SDS011;3617;48.836;9.172;2023-08-12T04:42:05;4.05;;;3.17;;
7150;SDS011;3617;48.836;9.172;2023-08-12T04:44:31;8.38;;;4.13;;
7150;SDS011;3617;48.836;9.172;2023-08-12T04:46:57;5.43;;;4.18;;
7150;SDS011;3617;48.836;9.172;2023-08-12T04:49:23;6.75;;;3.42;;
7150;SDS011;3617;48.836;9.172;2023-08-12T04:51:51;7.57;;;4.00;;
7150;SDS011;3617;48.836;9.172;2023-08-12T04:54:17;7.50;;;4.57;;
7150;SDS011;3617;48.836;9.172;2023-08-12T04:56:44;9.10;;;4.50;;
7150;SDS011;3617;48.836;9.172;2023-08-12T04:59:09;4.60;;;3.65;;
7150;SDS011;3617;48.836;9.172;2023-08-12T05:01:36;6.20;;;4.13;;
7150;SDS011;3617;48.836;9.172;2023-08-12T05:04:02;7.60;;;4.70;;
7150;SDS011;3617;48.836;9.172;2023-08-12T05:06:28;7.43;;;4.13;;
7150;SDS011;3617;48.836;9.172;2023-08-12T05:08:54;5.78;;;4.30;;
7150;SDS011;3617;48.836;9.172;2023-08-12T05:11:20;7.05;;;4.22;;
7150;SDS011;3617;48.836;9.172;2023-08-12T05:13:46;7.38;;;4.35;;
7150;SDS011;3617;48.836;9.172;2023-08-12T05:16:12;6.25;;;4.40;;
7150;SDS011;3617;48.836;9.172;2023-08-12T05:18:38;4.95;;;4.00;;
7150;SDS011;3617;48.836;9.172;2023-08-12T05:21:04;6.60;;;5.05;;
7150;SDS011;3617;48.836;9.172;2023-08-12T05:23:30;8.73;;;4.85;;
7150;SDS011;3617;48.836;9.172;2023-08-12T05:25:56;5.93;;;4.60;;
7150;SDS011;3617;48.836;9.172;2023-08-12T05:28:22;8.13;;;5.25;;
7150;SDS011;3617;48.836;9.172;2023-08-12T05:30:48;8.18;;;4.88;;
7150;SDS011;3617;48.836;9.172;2023-08-12T05:33:14;6.80;;;4.63;;
7150;SDS011;3617;48.836;9.172;2023-08-12T05:35:40;6.40;;;4.60;;
7150;SDS011;3617;48.836;9.172;2023-08-12T05:38:06;12.98;;;4.40;;
7150;SDS011;3617;48.836;9.172;2023-08-12T05:40:32;9.15;;;4.63;;
7150;SDS011;3617;48.836;9.172;2023-08-12T05:42:58;5.75;;;4.38;;
7150;SDS011;3617;48.836;9.172;2023-08-12T05:45:24;4.88;;;4.13;;
7150;SDS011;3617;48.836;9.172;2023-08-12T05:47:50;5.93;;;4.43;;
7150;SDS011;3617;48.836;9.172;2023-08-12T05:50:16;5.97;;;4.00;;
7150;SDS011;3617;48.836;9.172;2023-08-12T05:52:42;4.53;;;3.92;;
7150;SDS011;3617;48.836;9.172;2023-08-12T05:55:08;9.82;;;4.70;;
7150;SDS011;3617;48.836;9.172;2023-08-12T05:57:34;6.43;;;4.32;;
7150;SDS011;3617;48.836;9.172;2023-08-12T06:00:00;6.63;;;4.50;;
7150;SDS011;3617;48.836;9.172;2023-08-12T06:02:27;6.75;;;4.32;;
7150;SDS011;3617;48.836;9.172;2023-08-12T06:04:53;35.80;;;4.00;;
7150;SDS011;3617;48.836;9.172;2023-08-12T06:07:19;5.75;;;3.50;;
7150;SDS011;3617;48.836;9.172;2023-08-12T06:09:45;5.63;;;3.50;;
7150;SDS011;3617;48.836;9.172;2023-08-12T06:12:11;5.40;;;3.95;;
7150;SDS011;3617;48.836;9.172;2023-08-12T06:14:37;4.95;;;3.45;;
7150;SDS011;3617;48.836;9.172;2023-08-12T06:17:04;5.47;;;4.13;;
7150;SDS011;3617;48.836;9.172;2023-08-12T06:19:30;4.72;;;3.50;;
7150;SDS011;3617;48.836;9.172;2023-08-12T06:21:56;5.80;;;4.05;;
7150;SDS011;3617;48.836;9.172;2023-08-12T06:24:22;7.15;;;3.67;;
7150;SDS011;3617;48.836;9.172;2023-08-12T06:26:48;5.05;;;3.78;;
7150;SDS011;3617;48.836;9.172;2023-08-12T06:29:14;4.43;;;3.25;;
7150;SDS011;3617;48.836;9.172;2023-08-12T06:31:40;6.10;;;3.67;;
7150;SDS011;3617;48.836;9.172;2023-08-12T06:34:06;4.20;;;3.10;;
7150;SDS011;3617;48.836;9.172;2023-08-12T06:36:32;5.72;;;3.38;;
7150;SDS011;3617;48.836;9.172;2023-08-12T06:38:58;16.20;;;4.13;;
7150;SDS011;3617;48.836;9.172;2023-08-12T06:41:24;4.95;;;3.90;;
7150;SDS011;3617;48.836;9.172;2023-08-12T06:43:50;6.20;;;3.70;;
7150;SDS011;3617;48.836;9.172;2023-08-12T06:46:16;6.80;;;3.33;;
7150;SDS011;3617;48.836;9.172;2023-08-12T06:48:42;4.50;;;3.38;;
7150;SDS011;3617;48.836;9.172;2023-08-12T06:51:08;6.90;;;3.38;;
7150;SDS011;3617;48.836;9.172;2023-08-12T06:53:37;4.25;;;2.95;;
7150;SDS011;3617;48.836;9.172;2023-08-12T06:56:04;5.78;;;3.38;;
7150;SDS011;3617;48.836;9.172;2023-08-12T06:58:30;3.10;;;2.80;;
7150;SDS011;3617;48.836;9.172;2023-08-12T07:00:56;4.07;;;2.75;;
7150;SDS011;3617;48.836;9.172;2023-08-12T07:03:24;4.00;;;2.70;;
7150;SDS011;3617;48.836;9.172;2023-08-12T07:05:50;4.15;;;3.25;;
7150;SDS011;3617;48.836;9.172;2023-08-12T07:08:16;3.88;;;2.50;;
7150;SDS011;3617;48.836;9.172;2023-08-12T07:10:43;4.13;;;2.75;;
7150;SDS011;3617;48.836;9.172;2023-08-12T07:13:09;3.80;;;2.85;;
7150;SDS011;3617;48.836;9.172;2023-08-12T07:15:35;4.32;;;2.60;;
7150;SDS011;3617;48.836;9.172;2023-08-12T07:18:01;2.92;;;2.42;;
7150;SDS011;3617;48.836;9.172;2023-08-12T07:20:27;7.43;;;2.92;;
7150;SDS011;3617;48.836;9.172;2023-08-12T07:22:53;13.55;;;2.63;;
7150;SDS011;3617;48.836;9.172;2023-08-12T07:25:19;3.35;;;2.58;;
7150;SDS011;3617;48.836;9.172;2023-08-12T07:27:45;5.30;;;2.55;;
7150;SDS011;3617;48.836;9.172;2023-08-12T07:30:11;3.47;;;2.80;;
7150;SDS011;3617;48.836;9.172;2023-08-12T07:32:37;3.15;;;2.53;;
7150;SDS011;3617;48.836;9.172;2023-08-12T07:35:04;3.92;;;2.90;;
7150;SDS011;3617;48.836;9.172;2023-08-12T07:37:31;6.65;;;2.85;;
7150;SDS011;3617;48.836;9.172;2023-08-12T07:39:57;3.97;;;2.65;;
7150;SDS011;3617;48.836;9.172;2023-08-12T07:42:23;3.83;;;2.40;;
7150;SDS011;3617;48.836;9.172;2023-08-12T07:44:49;3.53;;;2.55;;
7150;SDS011;3617;48.836;9.172;2023-08-12T07:47:15;2.38;;;2.10;;
7150;SDS011;3617;48.836;9.172;2023-08-12T07:49:41;3.45;;;2.70;;
7150;SDS011;3617;48.836;9.172;2023-08-12T07:52:07;4.10;;;2.78;;
7150;SDS011;3617;48.836;9.172;2023-08-12T07:54:33;3.38;;;2.58;;
7150;SDS011;3617;48.836;9.172;2023-08-12T07:56:59;3.00;;;2.58;;
7150;SDS011;3617;48.836;9.172;2023-08-12T07:59:25;3.67;;;2.58;;
7150;SDS011;3617;48.836;9.172;2023-08-12T08:01:51;3.00;;;2.67;;
7150;SDS011;3617;48.836;9.172;2023-08-12T08:04:17;3.22;;;2.58;;
7150;SDS011;3617;48.836;9.172;2023-08-12T08:06:43;3.90;;;2.60;;
7150;SDS011;3617;48.836;9.172;2023-08-12T08:09:09;4.00;;;2.80;;
7150;SDS011;3617;48.836;9.172;2023-08-12T08:11:35;3.72;;;2.65;;
7150;SDS011;3617;48.836;9.172;2023-08-12T08:14:02;3.42;;;2.53;;
7150;SDS011;3617;48.836;9.172;2023-08-12T08:16:28;2.92;;;2.35;;
7150;SDS011;3617;48.836;9.172;2023-08-12T08:18:54;4.57;;;2.67;;
7150;SDS011;3617;48.836;9.172;2023-08-12T08:21:20;4.72;;;2.97;;
7150;SDS011;3617;48.836;9.172;2023-08-12T08:23:46;3.67;;;2.90;;
7150;SDS011;3617;48.836;9.172;2023-08-12T08:26:12;4.35;;;2.97;;
7150;SDS011;3617;48.836;9.172;2023-08-12T08:28:40;3.20;;;2.85;;
7150;SDS011;3617;48.836;9.172;2023-08-12T08:31:06;5.63;;;2.80;;
7150;SDS011;3617;48.836;9.172;2023-08-12T08:33:32;3.75;;;2.80;;
7150;SDS011;3617;48.836;9.172;2023-08-12T08:35:58;3.25;;;2.80;;
7150;SDS011;3617;48.836;9.172;2023-08-12T08:38:24;3.25;;;2.95;;
7150;SDS011;3617;48.836;9.172;2023-08-12T08:40:50;3.70;;;3.03;;
7150;SDS011;3617;48.836;9.172;2023-08-12T08:43:19;3.33;;;2.83;;
7150;SDS011;3617;48.836;9.172;2023-08-12T08:45:45;2.55;;;2.35;;
7150;SDS011;3617;48.836;9.172;2023-08-12T08:48:11;3.10;;;2.83;;
7150;SDS011;3617;48.836;9.172;2023-08-12T08:50:37;3.72;;;2.80;;
7150;SDS011;3617;48.836;9.172;2023-08-12T08:53:05;4.05;;;2.83;;
7150;SDS011;3617;48.836;9.172;2023-08-12T08:55:32;3.58;;;2.85;;
7150;SDS011;3617;48.836;9.172;2023-08-12T08:57:58;3.22;;;2.67;;
7150;SDS011;3617;48.836;9.172;2023-08-12T09:00:24;4.32;;;3.00;;
7150;SDS011;3617;48.836;9.172;2023-08-12T09:02:50;4.38;;;2.97;;
7150;SDS011;3617;48.836;9.172;2023-08-12T09:05:18;3.42;;;3.03;;
7150;SDS011;3617;48.836;9.172;2023-08-12T09:07:45;4.53;;;3.35;;
7150;SDS011;3617;48.836;9.172;2023-08-12T09:10:12;3.38;;;2.67;;
7150;SDS011;3617;48.836;9.172;2023-08-12T09:12:38;3.67;;;2.80;;
7150;SDS011;3617;48.836;9.172;2023-08-12T09:15:04;3.90;;;3.35;;
7150;SDS011;3617;48.836;9.172;2023-08-12T09:17:31;3.65;;;3.17;;
7150;SDS011;3617;48.836;9.172;2023-08-12T09:19:57;3.90;;;2.78;;
7150;SDS011;3617;48.836;9.172;2023-08-12T09:22:24;2.78;;;2.58;;
7150;SDS011;3617;48.836;9.172;2023-08-12T09:24:52;3.78;;;3.15;;
7150;SDS011;3617;48.836;9.172;2023-08-12T09:27:21;4.15;;;3.22;;
7150;SDS011;3617;48.836;9.172;2023-08-12T09:29:47;3.20;;;2.70;;
7150;SDS011;3617;48.836;9.172;2023-08-12T09:32:18;3.47;;;3.00;;
7150;SDS011;3617;48.836;9.172;2023-08-12T09:34:51;3.28;;;2.80;;
7150;SDS011;3617;48.836;9.172;2023-08-12T09:37:17;3.45;;;2.97;;
7150;SDS011;3617;48.836;9.172;2023-08-12T09:39:43;3.40;;;3.00;;
7150;SDS011;3617;48.836;9.172;2023-08-12T09:42:10;3.13;;;2.60;;
7150;SDS011;3617;48.836;9.172;2023-08-12T09:44:37;4.07;;;2.65;;
7150;SDS011;3617;48.836;9.172;2023-08-12T09:47:03;4.72;;;3.03;;
7150;SDS011;3617;48.836;9.172;2023-08-12T09:49:29;3.17;;;2.55;;
7150;SDS011;3617;48.836;9.172;2023-08-12T09:51:55;3.25;;;2.50;;
7150;SDS011;3617;48.836;9.172;2023-08-12T09:54:22;3.08;;;2.78;;
7150;SDS011;3617;48.836;9.172;2023-08-12T09:56:49;3.95;;;2.97;;
7150;SDS011;3617;48.836;9.172;2023-08-12T09:59:19;4.78;;;2.97;;
7150;SDS011;3617;48.836;9.172;2023-08-12T10:01:45;3.13;;;2.83;;
7150;SDS011;3617;48.836;9.172;2023-08-12T10:04:11;4.32;;;3.08;;
7150;SDS011;3617;48.836;9.172;2023-08-12T10:06:40;3.55;;;2.67;;
7150;SDS011;3617;48.836;9.172;2023-08-12T10:09:06;3.67;;;3.08;;
7150;SDS011;3617;48.836;9.172;2023-08-12T10:11:34;3.47;;;2.85;;
7150;SDS011;3617;48.836;9.172;2023-08-12T10:14:00;3.42;;;2.50;;
7150;SDS011;3617;48.836;9.172;2023-08-12T10:16:27;4.80;;;2.72;;
7150;SDS011;3617;48.836;9.172;2023-08-12T10:18:55;3.30;;;3.00;;
7150;SDS011;3617;48.836;9.172;2023-08-12T10:21:21;3.83;;;2.70;;
7150;SDS011;3617;48.836;9.172;2023-08-12T10:23:48;3.33;;;2.58;;
7150;SDS011;3617;48.836;9.172;2023-08-12T10:26:15;3.10;;;2.78;;
7150;SDS011;3617;48.836;9.172;2023-08-12T10:28:43;3.15;;;2.72;;
7150;SDS011;3617;48.836;9.172;2023-08-12T10:31:10;3.92;;;2.72;;
7150;SDS011;3617;48.836;9.172;2023-08-12T10:33:40;3.25;;;2.60;;
7150;SDS011;3617;48.836;9.172;2023-08-12T10:36:06;3.25;;;2.22;;
7150;SDS011;3617;48.836;9.172;2023-08-12T10:38:32;3.05;;;2.22;;
7150;SDS011;3617;48.836;9.172;2023-08-12T10:41:15;2.40;;;2.10;;
7150;SDS011;3617;48.836;9.172;2023-08-12T10:43:48;3.60;;;2.35;;
7150;SDS011;3617;48.836;9.172;2023-08-12T11:00:09;3.65;;;2.00;;
7150;SDS011;3617;48.836;9.172;2023-08-12T11:02:18;2.83;;;2.10;;
7150;SDS011;3617;48.836;9.172;2023-08-12T11:04:52;3.67;;;2.00;;
7150;SDS011;3617;48.836;9.172;2023-08-12T11:07:19;2.58;;;1.90;;
7150;SDS011;3617;48.836;9.172;2023-08-12T11:09:48;5.95;;;2.63;;
7150;SDS011;3617;48.836;9.172;2023-08-12T11:12:17;3.25;;;1.90;;
7150;SDS011;3617;48.836;9.172;2023-08-12T11:14:53;2.28;;;2.08;;
7150;SDS011;3617;48.836;9.172;2023-08-12T11:17:19;2.45;;;1.95;;
7150;SDS011;3617;48.836;9.172;2023-08-12T11:19:45;2.28;;;2.08;;
7150;SDS011;3617;48.836;9.172;2023-08-12T11:22:12;2.00;;;1.80;;
7150;SDS011;3617;48.836;9.172;2023-08-12T11:24:41;3.05;;;2.25;;
7150;SDS011;3617;48.836;9.172;2023-08-12T11:27:11;2.67;;;1.92;;
7150;SDS011;3617;48.836;9.172;2023-08-12T11:29:37;2.67;;;2.00;;
7150;SDS011;3617;48.836;9.172;2023-08-12T11:32:04;3.78;;;2.05;;
7150;SDS011;3617;48.836;9.172;2023-08-12T11:34:31;2.97;;;2.05;;
7150;SDS011;3617;48.836;9.172;2023-08-12T11:36:58;2.30;;;1.75;;
7150;SDS011;3617;48.836;9.172;2023-08-12T11:39:24;2.90;;;1.95;;
7150;SDS011;3617;48.836;9.172;2023-08-12T11:41:50;2.55;;;1.60;;
7150;SDS011;3617;48.836;9.172;2023-08-12T11:44:16;2.08;;;1.70;;
7150;SDS011;3617;48.836;9.172;2023-08-12T11:46:42;2.00;;;1.60;;
7150;SDS011;3617;48.836;9.172;2023-08-12T11:49:08;4.30;;;2.00;;
7150;SDS011;3617;48.836;9.172;2023-08-12T11:51:34;2.85;;;1.85;;
7150;SDS011;3617;48.836;9.172;2023-08-12T11:54:01;2.15;;;1.73;;
7150;SDS011;3617;48.836;9.172;2023-08-12T11:56:27;3.03;;;1.90;;
7150;SDS011;3617;48.836;9.172;2023-08-12T11:58:53;3.05;;;1.90;;
7150;SDS011;3617;48.836;9.172;2023-08-12T12:01:20;3.13;;;1.70;;
7150;SDS011;3617;48.836;9.172;2023-08-12T12:03:51;1.48;;;1.35;;
7150;SDS011;3617;48.836;9.172;2023-08-12T12:06:17;1.90;;;1.20;;
7150;SDS011;3617;48.836;9.172;2023-08-12T12:08:45;0.85;;;0.82;;
7150;SDS011;3617;48.836;9.172;2023-08-12T12:11:13;1.40;;;0.85;;
7150;SDS011;3617;48.836;9.172;2023-08-12T12:13:39;1.70;;;0.80;;
7150;SDS011;3617;48.836;9.172;2023-08-12T12:16:09;0.95;;;0.80;;
7150;SDS011;3617;48.836;9.172;2023-08-12T12:18:36;0.90;;;0.80;;
7150;SDS011;3617;48.836;9.172;2023-08-12T12:21:02;1.23;;;0.75;;
7150;SDS011;3617;48.836;9.172;2023-08-12T12:23:28;2.40;;;0.80;;
7150;SDS011;3617;48.836;9.172;2023-08-12T12:25:58;2.08;;;0.95;;
7150;SDS011;3617;48.836;9.172;2023-08-12T12:28:24;1.90;;;1.30;;
7150;SDS011;3617;48.836;9.172;2023-08-12T12:30:50;1.42;;;1.08;;
7150;SDS011;3617;48.836;9.172;2023-08-12T12:36:20;2.60;;;1.15;;
7150;SDS011;3617;48.836;9.172;2023-08-12T12:38:46;2.83;;;1.55;;
7150;SDS011;3617;48.836;9.172;2023-08-12T12:41:12;3.97;;;1.60;;
7150;SDS011;3617;48.836;9.172;2023-08-12T12:43:38;4.82;;;1.63;;
7150;SDS011;3617;48.836;9.172;2023-08-12T12:46:04;2.45;;;1.52;;
7150;SDS011;3617;48.836;9.172;2023-08-12T12:48:30;3.58;;;1.92;;
7150;SDS011;3617;48.836;9.172;2023-08-12T12:50:56;3.85;;;2.15;;
7150;SDS011;3617;48.836;9.172;2023-08-12T12:53:22;2.78;;;2.05;;
7150;SDS011;3617;48.836;9.172;2023-08-12T12:55:48;4.07;;;2.30;;
7150;SDS011;3617;48.836;9.172;2023-08-12T12:58:14;4.68;;;2.28;;
7150;SDS011;3617;48.836;9.172;2023-08-12T13:00:41;5.10;;;2.28;;
7150;SDS011;3617;48.836;9.172;2023-08-12T13:03:07;4.20;;;2.30;;
7150;SDS011;3617;48.836;9.172;2023-08-12T13:05:33;2.95;;;2.17;;
7150;SDS011;3617;48.836;9.172;2023-08-12T13:07:59;5.40;;;2.45;;
7150;SDS011;3617;48.836;9.172;2023-08-12T13:10:25;4.15;;;3.03;;
7150;SDS011;3617;48.836;9.172;2023-08-12T13:12:51;4.53;;;2.63;;
7150;SDS011;3617;48.836;9.172;2023-08-12T13:15:17;5.80;;;2.63;;
7150;SDS011;3617;48.836;9.172;2023-08-12T13:17:43;4.35;;;2.55;;
7150;SDS011;3617;48.836;9.172;2023-08-12T13:20:09;3.03;;;2.53;;
7150;SDS011;3617;48.836;9.172;2023-08-12T13:22:35;5.93;;;3.00;;
7150;SDS011;3617;48.836;9.172;2023-08-12T13:25:01;5.03;;;2.88;;
7150;SDS011;3617;48.836;9.172;2023-08-12T13:27:27;4.18;;;3.03;;
7150;SDS011;3617;48.836;9.172;2023-08-12T13:29:53;4.07;;;3.00;;
7150;SDS011;3617;48.836;9.172;2023-08-12T13:32:19;4.88;;;2.60;;
7150;SDS011;3617;48.836;9.172;2023-08-12T13:34:45;3.03;;;2.20;;
7150;SDS011;3617;48.836;9.172;2023-08-12T13:37:12;4.57;;;2.55;;
7150;SDS011;3617;48.836;9.172;2023-08-12T13:39:38;3.67;;;2.72;;
7150;SDS011;3617;48.836;9.172;2023-08-12T13:42:04;4.07;;;2.83;;
7150;SDS011;3617;48.836;9.172;2023-08-12T13:44:30;4.72;;;2.72;;
7150;SDS011;3617;48.836;9.172;2023-08-12T13:46:56;2.72;;;2.28;;
7150;SDS011;3617;48.836;9.172;2023-08-12T13:49:22;4.10;;;2.88;;
7150;SDS011;3617;48.836;9.172;2023-08-12T13:51:48;3.45;;;2.58;;
7150;SDS011;3617;48.836;9.172;2023-08-12T13:54:14;3.33;;;2.33;;
7150;SDS011;3617;48.836;9.172;2023-08-12T13:56:40;3.30;;;2.38;;
7150;SDS011;3617;48.836;9.172;2023-08-12T13:59:06;3.78;;;2.70;;
7150;SDS011;3617;48.836;9.172;2023-08-12T14:01:32;4.30;;;2.67;;
7150;SDS011;3617;48.836;9.172;2023-08-12T14:03:58;3.20;;;2.63;;
7150;SDS011;3617;48.836;9.172;2023-08-12T14:06:24;2.53;;;2.28;;
7150;SDS011;3617;48.836;9.172;2023-08-12T14:08:50;4.18;;;2.60;;
7150;SDS011;3617;48.836;9.172;2023-08-12T14:11:16;2.92;;;2.20;;
7150;SDS011;3617;48.836;9.172;2023-08-12T14:13:42;3.33;;;2.25;;
7150;SDS011;3617;48.836;9.172;2023-08-12T14:16:08;2.83;;;2.13;;
7150;SDS011;3617;48.836;9.172;2023-08-12T14:18:34;3.47;;;2.47;;
7150;SDS011;3617;48.836;9.172;2023-08-12T14:21:00;2.85;;;2.53;;
7150;SDS011;3617;48.836;9.172;2023-08-12T14:23:26;3.13;;;2.45;;
7150;SDS011;3617;48.836;9.172;2023-08-12T14:25:52;3.42;;;2.53;;
7150;SDS011;3617;48.836;9.172;2023-08-12T14:28:18;3.40;;;2.05;;
7150;SDS011;3617;48.836;9.172;2023-08-12T14:30:44;3.45;;;2.25;;
7150;SDS011;3617;48.836;9.172;2023-08-12T14:33:10;3.35;;;2.50;;
7150;SDS011;3617;48.836;9.172;2023-08-12T14:35:36;4.85;;;2.65;;
7150;SDS011;3617;48.836;9.172;2023-08-12T14:38:02;2.72;;;2.38;;
7150;SDS011;3617;48.836;9.172;2023-08-12T14:40:28;3.63;;;2.33;;
7150;SDS011;3617;48.836;9.172;2023-08-12T14:42:54;5.28;;;2.60;;
7150;SDS011;3617;48.836;9.172;2023-08-12T14:45:20;3.58;;;2.65;;
7150;SDS011;3617;48.836;9.172;2023-08-12T14:47:46;3.72;;;2.50;;
7150;SDS011;3617;48.836;9.172;2023-08-12T14:50:12;6.32;;;3.08;;
7150;SDS011;3617;48.836;9.172;2023-08-12T14:52:38;3.20;;;2.40;;
7150;SDS011;3617;48.836;9.172;2023-08-12T14:55:04;3.22;;;2.42;;
7150;SDS011;3617;48.836;9.172;2023-08-12T14:57:31;3.00;;;2.40;;
7150;SDS011;3617;48.836;9.172;2023-08-12T14:59:57;4.20;;;2.47;;
7150;SDS011;3617;48.836;9.172;2023-08-12T15:02:23;2.97;;;2.40;;
7150;SDS011;3617;48.836;9.172;2023-08-12T15:04:49;4.97;;;2.42;;
7150;SDS011;3617;48.836;9.172;2023-08-12T15:07:15;3.65;;;2.30;;
7150;SDS011;3617;48.836;9.172;2023-08-12T15:09:43;3.90;;;2.38;;
7150;SDS011;3617;48.836;9.172;2023-08-12T15:12:09;2.92;;;2.33;;
7150;SDS011;3617;48.836;9.172;2023-08-12T15:14:35;4.00;;;2.60;;
7150;SDS011;3617;48.836;9.172;2023-08-12T15:17:01;3.65;;;2.70;;
7150;SDS011;3617;48.836;9.172;2023-08-12T15:19:27;3.90;;;3.03;;
7150;SDS011;3617;48.836;9.172;2023-08-12T15:21:53;4.07;;;2.80;;
7150;SDS011;3617;48.836;9.172;2023-08-12T15:24:19;3.03;;;2.38;;
7150;SDS011;3617;48.836;9.172;2023-08-12T15:26:45;6.22;;;2.50;;